createdAt,value
2023-05-10T00:05:00.073Z,9.60
2023-05-10T00:10:06.011Z,9.00
2023-05-10T00:15:11.168Z,9.80
2023-05-10T00:20:16.090Z,9.50
2023-05-10T00:25:20.385Z,9.50
2023-05-10T00:30:25.023Z,8.50
2023-05-10T00:35:29.316Z,9.00
2023-05-10T00:40:33.516Z,8.50
2023-05-10T00:45:42.920Z,9.00
2023-05-10T00:50:47.619Z,9.00
2023-05-10T00:55:52.781Z,8.30
2023-05-10T01:01:00.289Z,7.70
2023-05-10T01:06:04.817Z,8.70
2023-05-10T01:11:09.064Z,9.50
2023-05-10T01:16:13.593Z,8.10
2023-05-10T01:22:01.976Z,8.00
2023-05-10T01:27:35.056Z,8.00
2023-05-10T01:32:42.143Z,7.30
2023-05-10T01:38:05.938Z,7.50
2023-05-10T01:43:17.864Z,7.60
2023-05-10T01:48:23.612Z,7.00
2023-05-10T01:53:29.382Z,7.30
2023-05-10T01:58:36.703Z,6.80
2023-05-10T02:03:44.180Z,7.10
2023-05-10T02:08:50.540Z,6.40
2023-05-10T02:13:56.526Z,6.70
2023-05-10T02:19:05.847Z,6.90
2023-05-10T02:24:11.089Z,6.80
2023-05-10T02:29:17.275Z,6.80
2023-05-10T02:34:24.491Z,6.40
2023-05-10T02:39:31.980Z,6.10
2023-05-10T02:44:38.577Z,6.50
2023-05-10T02:49:43.304Z,6.40
2023-05-10T02:54:52.272Z,5.70
2023-05-10T02:59:56.812Z,6.40
2023-05-10T03:05:01.804Z,5.80
2023-05-10T03:10:07.244Z,6.40
2023-05-10T03:15:34.811Z,5.60
2023-05-10T03:20:50.407Z,5.60
2023-05-10T03:25:54.838Z,6.20
2023-05-10T03:31:00.334Z,5.20
2023-05-10T03:36:05.271Z,6.00
2023-05-10T03:41:09.483Z,5.80
2023-05-10T03:46:13.631Z,5.10
2023-05-10T03:51:18.285Z,5.60
2023-05-10T03:56:22.523Z,5.80
2023-05-10T04:01:27.152Z,6.40
2023-05-10T04:06:32.181Z,5.40
2023-05-10T04:11:36.457Z,5.30
2023-05-10T04:16:40.728Z,6.00
2023-05-10T04:21:44.825Z,5.50
2023-05-10T04:26:48.975Z,5.40
2023-05-10T04:31:53.302Z,4.80
2023-05-10T04:36:57.852Z,5.10
2023-05-10T04:42:04.314Z,4.60
2023-05-10T04:47:09.872Z,4.80
2023-05-10T04:52:16.594Z,5.00
2023-05-10T04:57:20.836Z,4.40
2023-05-10T05:02:25.130Z,4.00
2023-05-10T05:07:29.512Z,4.50
2023-05-10T05:12:33.656Z,4.50
2023-05-10T05:17:38.343Z,4.80
2023-05-10T05:22:42.525Z,4.50
2023-05-10T05:27:46.869Z,4.90
2023-05-10T05:32:51.045Z,3.70
2023-05-10T05:37:55.143Z,4.30
2023-05-10T05:42:59.582Z,4.30
2023-05-10T05:48:04.509Z,3.60
2023-05-10T05:53:08.571Z,4.10
2023-05-10T05:58:12.716Z,4.10
2023-05-10T06:03:17.134Z,4.30
2023-05-10T06:08:21.900Z,4.10
2023-05-10T06:13:33.842Z,4.30
2023-05-10T06:18:38.354Z,4.10
2023-05-10T06:23:42.397Z,3.70
2023-05-10T06:34:15.112Z,4.60
2023-05-10T06:39:19.654Z,4.50
2023-05-10T06:44:23.732Z,3.70
2023-05-10T06:49:29.155Z,33.70
2023-05-10T06:54:33.086Z,33.80
2023-05-10T06:59:38.042Z,29.60
2023-05-10T07:04:42.312Z,26.00
2023-05-10T07:09:46.893Z,22.20
2023-05-10T07:14:51.101Z,18.40
2023-05-10T07:19:55.407Z,17.80
2023-05-10T07:24:59.972Z,16.50
2023-05-10T07:30:04.401Z,16.20
2023-05-10T07:35:09.035Z,15.10
2023-05-10T07:40:13.065Z,16.30
2023-05-10T07:45:17.251Z,15.20
2023-05-10T07:50:22.591Z,15.40
2023-05-10T07:55:27.553Z,14.40
2023-05-10T08:00:33.099Z,15.20
2023-05-10T08:05:37.024Z,14.30
2023-05-10T08:10:41.173Z,16.00
2023-05-10T08:15:45.326Z,13.90
2023-05-10T08:20:49.608Z,14.50
2023-05-10T08:25:54.066Z,14.30
2023-05-10T08:30:58.431Z,14.90
2023-05-10T08:36:02.442Z,13.00
2023-05-10T08:41:07.420Z,14.00
2023-05-10T08:46:12.551Z,12.70
2023-05-10T08:51:23.303Z,12.10
2023-05-10T08:56:29.010Z,14.20
2023-05-10T09:01:34.277Z,13.00
2023-05-10T09:06:38.771Z,12.70
2023-05-10T09:11:42.836Z,12.60
2023-05-10T09:16:48.153Z,12.60
2023-05-10T09:21:52.132Z,11.80
2023-05-10T09:26:58.964Z,11.80
2023-05-10T09:32:03.280Z,11.90
2023-05-10T09:37:08.240Z,11.40
2023-05-10T09:42:12.364Z,10.70
2023-05-10T09:47:22.862Z,9.90
2023-05-10T09:52:26.968Z,10.10
2023-05-10T09:57:32.849Z,9.20
2023-05-10T10:02:39.664Z,10.20
2023-05-10T10:07:44.032Z,9.00
2023-05-10T10:12:48.232Z,9.40
2023-05-10T10:17:53.873Z,8.90
2023-05-10T10:22:58.038Z,8.50
2023-05-10T10:28:27.557Z,8.50
2023-05-10T10:33:38.060Z,8.50
2023-05-10T10:38:48.466Z,8.60
2023-05-10T10:44:27.705Z,8.20
2023-05-10T10:49:41.220Z,8.80
2023-05-10T10:54:58.537Z,8.30
2023-05-10T11:00:34.992Z,9.70
2023-05-10T11:05:49.905Z,7.50
2023-05-10T11:11:00.181Z,7.60
2023-05-10T11:16:25.306Z,7.30
2023-05-10T11:21:31.597Z,7.00
2023-05-10T11:26:37.081Z,8.00
2023-05-10T11:31:46.501Z,7.30
2023-05-10T11:36:55.172Z,7.00
2023-05-10T11:42:00.178Z,6.80
2023-05-10T11:47:04.956Z,7.60
2023-05-10T11:52:10.203Z,7.00
2023-05-10T11:57:14.299Z,6.20
2023-05-10T12:02:18.586Z,6.70
2023-05-10T12:07:22.677Z,6.20
2023-05-10T12:12:26.802Z,7.10
2023-05-10T12:17:31.285Z,6.40
2023-05-10T12:22:36.308Z,5.70
2023-05-10T12:27:40.462Z,6.20
2023-05-10T12:32:45.439Z,5.40
2023-05-10T12:37:49.648Z,6.30
2023-05-10T12:42:54.116Z,5.80
2023-05-10T12:47:58.368Z,4.70
2023-05-10T12:53:02.352Z,5.70
2023-05-10T12:58:06.340Z,5.00
2023-05-10T13:03:11.458Z,5.30
2023-05-10T13:08:15.714Z,5.00
2023-05-10T13:13:19.827Z,5.30
2023-05-10T13:18:23.986Z,4.80
2023-05-10T13:23:27.993Z,4.50
2023-05-10T13:28:32.332Z,4.60
2023-05-10T13:33:36.249Z,4.20
2023-05-10T13:38:40.191Z,5.20
2023-05-10T13:43:44.417Z,4.90
2023-05-10T13:48:48.547Z,4.70
2023-05-10T13:53:53.312Z,4.80
2023-05-10T13:59:00.771Z,4.50
2023-05-10T14:04:04.903Z,4.70
2023-05-10T14:09:10.172Z,4.80
2023-05-10T14:14:14.764Z,4.00
2023-05-10T14:19:18.887Z,3.90
2023-05-10T14:24:22.920Z,3.90
2023-05-10T14:29:26.953Z,3.90
2023-05-10T14:34:31.819Z,4.00
2023-05-10T14:39:36.564Z,4.10
2023-05-10T14:44:40.999Z,3.80
2023-05-10T14:49:44.829Z,3.30
2023-05-10T14:54:48.973Z,3.80
2023-05-10T14:59:52.791Z,2.90
2023-05-10T15:04:58.784Z,3.60
2023-05-10T15:10:03.816Z,3.50
2023-05-10T15:15:08.777Z,2.80
2023-05-10T15:20:13.223Z,3.00
2023-05-10T15:25:17.508Z,2.90
2023-05-10T15:30:22.070Z,2.90
2023-05-10T15:35:27.888Z,2.60
2023-05-10T15:40:34.884Z,2.70
2023-05-10T15:45:39.920Z,2.40
2023-05-10T15:50:43.755Z,2.50
2023-05-10T15:55:47.803Z,2.40
2023-05-10T16:00:51.874Z,2.60
2023-05-10T16:05:56.168Z,2.50
2023-05-10T16:11:01.128Z,2.30
2023-05-10T16:16:05.711Z,2.10
2023-05-10T16:21:09.708Z,2.10
2023-05-10T16:26:14.356Z,2.40
2023-05-10T16:31:22.538Z,2.60
2023-05-10T16:36:27.491Z,2.10
2023-05-10T16:42:24.469Z,2.90
2023-05-10T16:47:28.559Z,2.70
2023-05-10T16:52:33.388Z,2.60
2023-05-10T16:57:37.301Z,2.20
2023-05-10T17:02:42.241Z,2.20
2023-05-10T17:07:46.946Z,3.00
2023-05-10T17:12:51.875Z,2.40
2023-05-10T17:17:56.159Z,2.00
2023-05-10T17:23:00.941Z,2.10
2023-05-10T17:28:04.974Z,2.50
2023-05-10T17:33:08.985Z,2.20
2023-05-10T17:38:13.059Z,2.50
2023-05-10T17:43:17.175Z,3.40
2023-05-10T17:48:21.113Z,2.20
2023-05-10T17:53:25.017Z,2.10
2023-05-10T17:58:29.291Z,2.20
2023-05-10T18:03:33.467Z,2.10
2023-05-10T18:08:37.444Z,1.90
2023-05-10T18:13:42.519Z,2.20
2023-05-10T18:18:46.871Z,2.60
2023-05-10T18:23:50.768Z,2.40
2023-05-10T18:28:54.797Z,2.80
2023-05-10T18:33:59.144Z,2.60
2023-05-10T18:39:03.571Z,2.50
2023-05-10T18:44:09.634Z,3.20
2023-05-10T18:49:14.036Z,2.30
2023-05-10T18:54:18.904Z,2.50
2023-05-10T18:59:23.842Z,2.70
2023-05-10T19:04:29.127Z,2.40
2023-05-10T19:09:34.338Z,2.80
2023-05-10T19:14:39.359Z,2.60
2023-05-10T19:19:45.315Z,2.90
2023-05-10T19:24:50.316Z,2.50
2023-05-10T19:29:55.952Z,3.60
2023-05-10T19:35:00.952Z,2.40
2023-05-10T19:40:11.652Z,3.60
2023-05-10T19:45:17.619Z,11.30
2023-05-10T19:50:22.051Z,40.80
2023-05-10T19:55:31.208Z,55.70
2023-05-10T20:00:37.336Z,92.20
2023-05-10T20:05:41.804Z,56.20
2023-05-10T20:10:46.462Z,52.30
2023-05-10T20:15:50.661Z,45.40
2023-05-10T20:20:55.999Z,42.70
2023-05-10T20:26:00.130Z,39.70
2023-05-10T20:31:04.995Z,41.60
2023-05-10T20:36:13.372Z,38.40
2023-05-10T20:41:17.713Z,38.50
2023-05-10T20:46:22.078Z,36.00
2023-05-10T20:51:26.084Z,39.00
2023-05-10T20:56:30.132Z,34.30
2023-05-10T21:01:34.286Z,34.80
2023-05-10T21:06:38.402Z,33.80
2023-05-10T21:11:42.628Z,34.20
2023-05-10T21:16:46.673Z,32.60
2023-05-10T21:21:51.425Z,32.30
2023-05-10T21:26:55.556Z,33.90
2023-05-10T21:31:59.657Z,31.40
2023-05-10T21:37:03.631Z,32.30
2023-05-10T21:42:07.764Z,30.10
2023-05-10T21:47:11.582Z,30.50
2023-05-10T21:52:15.704Z,29.50
2023-05-10T21:57:21.802Z,28.90
2023-05-10T22:02:26.034Z,28.40
2023-05-10T22:07:34.205Z,29.70
2023-05-10T22:12:38.385Z,28.70
2023-05-10T22:17:42.259Z,27.10
2023-05-10T22:22:46.362Z,25.30
2023-05-10T22:27:50.498Z,25.70
2023-05-10T22:32:54.648Z,24.50
2023-05-10T22:37:58.602Z,24.30
2023-05-10T22:43:02.994Z,24.00
2023-05-10T22:48:09.658Z,24.50
2023-05-10T22:53:13.624Z,23.50
2023-05-10T22:58:18.197Z,23.10
2023-05-10T23:03:22.439Z,22.30
2023-05-10T23:08:26.858Z,22.00
2023-05-10T23:13:30.886Z,21.50
2023-05-10T23:18:34.939Z,20.80
2023-05-10T23:23:39.088Z,21.10
2023-05-10T23:28:43.301Z,19.50
2023-05-10T23:33:47.538Z,19.70
2023-05-10T23:38:51.469Z,19.60
2023-05-10T23:43:55.727Z,19.40
2023-05-10T23:48:59.824Z,19.20
2023-05-10T23:54:03.870Z,19.00
2023-05-10T23:59:07.795Z,18.10
